sensor_id;sensor_type;location;lat;lon;timestamp;P1;durP1;ratioP1;P2;durP2;ratioP2
14013;SDS011;49110;52.584;13.408;2022-10-31T00:00:56;29.03;;;19.43;;
14013;SDS011;49110;52.584;13.408;2022-10-31T00:01:57;27.17;;;20.33;;
14013;SDS011;49110;52.584;13.408;2022-10-31T00:02:58;31.30;;;20.07;;
14013;SDS011;49110;52.584;13.408;2022-10-31T00:03:58;32.37;;;20.40;;
14013;SDS011;49110;52.584;13.408;2022-10-31T00:04:59;32.27;;;19.80;;
14013;SDS011;49110;52.584;13.408;2022-10-31T00:05:59;26.20;;;19.30;;
14013;SDS011;49110;52.584;13.408;2022-10-31T00:07:01;29.00;;;19.60;;
14013;SDS011;49110;52.584;13.408;2022-10-31T00:08:02;30.37;;;19.07;;
14013;SDS011;49110;52.584;13.408;2022-10-31T00:09:03;28.50;;;19.37;;
14013;SDS011;49110;52.584;13.408;2022-10-31T00:10:04;32.33;;;20.70;;
14013;SDS011;49110;52.584;13.408;2022-10-31T00:11:09;32.53;;;20.97;;
14013;SDS011;49110;52.584;13.408;2022-10-31T00:12:10;34.70;;;20.57;;
14013;SDS011;49110;52.584;13.408;2022-10-31T00:13:11;28.80;;;19.07;;
14013;SDS011;49110;52.584;13.408;2022-10-31T00:14:13;32.07;;;20.57;;
14013;SDS011;49110;52.584;13.408;2022-10-31T00:15:14;25.83;;;18.40;;
14013;SDS011;49110;52.584;13.408;2022-10-31T00:16:21;30.40;;;19.37;;
14013;SDS011;49110;52.584;13.408;2022-10-31T00:17:24;32.23;;;19.43;;
14013;SDS011;49110;52.584;13.408;2022-10-31T00:18:24;37.17;;;19.77;;
14013;SDS011;49110;52.584;13.408;2022-10-31T00:19:25;25.60;;;18.37;;
14013;SDS011;49110;52.584;13.408;2022-10-31T00:20:25;30.23;;;18.60;;
14013;SDS011;49110;52.584;13.408;2022-10-31T00:21:26;27.53;;;20.00;;
14013;SDS011;49110;52.584;13.408;2022-10-31T00:22:27;30.27;;;19.40;;
14013;SDS011;49110;52.584;13.408;2022-10-31T00:23:28;27.30;;;19.03;;
14013;SDS011;49110;52.584;13.408;2022-10-31T00:24:29;26.87;;;19.07;;
14013;SDS011;49110;52.584;13.408;2022-10-31T00:25:32;29.63;;;18.67;;
14013;SDS011;49110;52.584;13.408;2022-10-31T00:26:34;27.77;;;18.87;;
14013;SDS011;49110;52.584;13.408;2022-10-31T00:27:35;31.50;;;18.43;;
14013;SDS011;49110;52.584;13.408;2022-10-31T00:28:36;24.70;;;17.90;;
14013;SDS011;49110;52.584;13.408;2022-10-31T00:29:36;27.30;;;18.70;;
14013;SDS011;49110;52.584;13.408;2022-10-31T00:30:37;24.47;;;17.97;;
14013;SDS011;49110;52.584;13.408;2022-10-31T00:31:37;34.57;;;18.90;;
14013;SDS011;49110;52.584;13.408;2022-10-31T00:32:38;27.27;;;18.20;;
14013;SDS011;49110;52.584;13.408;2022-10-31T00:33:39;26.90;;;18.60;;
14013;SDS011;49110;52.584;13.408;2022-10-31T00:34:40;30.50;;;18.03;;
14013;SDS011;49110;52.584;13.408;2022-10-31T00:35:41;29.30;;;17.93;;
14013;SDS011;49110;52.584;13.408;2022-10-31T00:36:41;28.60;;;19.37;;
14013;SDS011;49110;52.584;13.408;2022-10-31T00:37:42;32.13;;;18.83;;
14013;SDS011;49110;52.584;13.408;2022-10-31T00:38:42;30.67;;;19.10;;
14013;SDS011;49110;52.584;13.408;2022-10-31T00:39:44;27.73;;;18.67;;
14013;SDS011;49110;52.584;13.408;2022-10-31T00:40:45;30.57;;;17.93;;
14013;SDS011;49110;52.584;13.408;2022-10-31T00:41:45;28.83;;;18.27;;
14013;SDS011;49110;52.584;13.408;2022-10-31T00:42:46;27.60;;;17.57;;
14013;SDS011;49110;52.584;13.408;2022-10-31T00:43:46;24.27;;;17.23;;
14013;SDS011;49110;52.584;13.408;2022-10-31T00:44:47;28.47;;;19.37;;
14013;SDS011;49110;52.584;13.408;2022-10-31T00:45:47;24.70;;;17.30;;
14013;SDS011;49110;52.584;13.408;2022-10-31T00:46:48;22.63;;;17.30;;
14013;SDS011;49110;52.584;13.408;2022-10-31T00:47:48;27.73;;;18.33;;
14013;SDS011;49110;52.584;13.408;2022-10-31T00:48:49;26.73;;;17.93;;
14013;SDS011;49110;52.584;13.408;2022-10-31T00:49:49;30.37;;;18.13;;
14013;SDS011;49110;52.584;13.408;2022-10-31T00:50:50;26.50;;;17.30;;
14013;SDS011;49110;52.584;13.408;2022-10-31T00:51:50;25.40;;;18.47;;
14013;SDS011;49110;52.584;13.408;2022-10-31T00:52:50;27.83;;;18.43;;
14013;SDS011;49110;52.584;13.408;2022-10-31T00:53:51;28.57;;;17.73;;
14013;SDS011;49110;52.584;13.408;2022-10-31T00:54:51;26.10;;;18.83;;
14013;SDS011;49110;52.584;13.408;2022-10-31T00:55:52;27.13;;;18.73;;
14013;SDS011;49110;52.584;13.408;2022-10-31T00:56:52;24.33;;;17.77;;
14013;SDS011;49110;52.584;13.408;2022-10-31T00:57:53;26.33;;;17.03;;
14013;SDS011;49110;52.584;13.408;2022-10-31T00:58:53;31.57;;;18.63;;
14013;SDS011;49110;52.584;13.408;2022-10-31T00:59:54;27.07;;;18.67;;
14013;SDS011;49110;52.584;13.408;2022-10-31T01:00:54;26.67;;;17.97;;
14013;SDS011;49110;52.584;13.408;2022-10-31T01:01:55;32.47;;;17.60;;
14013;SDS011;49110;52.584;13.408;2022-10-31T01:02:56;27.43;;;16.97;;
14013;SDS011;49110;52.584;13.408;2022-10-31T01:03:56;29.17;;;18.20;;
14013;SDS011;49110;52.584;13.408;2022-10-31T01:04:57;28.53;;;18.60;;
14013;SDS011;49110;52.584;13.408;2022-10-31T01:06:07;22.90;;;17.33;;
14013;SDS011;49110;52.584;13.408;2022-10-31T01:07:11;25.47;;;17.20;;
14013;SDS011;49110;52.584;13.408;2022-10-31T01:08:13;26.30;;;16.70;;
14013;SDS011;49110;52.584;13.408;2022-10-31T01:09:14;24.20;;;17.13;;
14013;SDS011;49110;52.584;13.408;2022-10-31T01:10:14;25.13;;;17.03;;
14013;SDS011;49110;52.584;13.408;2022-10-31T01:11:19;25.00;;;16.53;;
14013;SDS011;49110;52.584;13.408;2022-10-31T01:12:21;29.93;;;17.17;;
14013;SDS011;49110;52.584;13.408;2022-10-31T01:13:21;24.57;;;15.97;;
14013;SDS011;49110;52.584;13.408;2022-10-31T01:14:22;21.10;;;16.20;;
14013;SDS011;49110;52.584;13.408;2022-10-31T01:15:23;24.53;;;16.53;;
14013;SDS011;49110;52.584;13.408;2022-10-31T01:16:24;24.20;;;16.57;;
14013;SDS011;49110;52.584;13.408;2022-10-31T01:17:26;23.13;;;15.90;;
14013;SDS011;49110;52.584;13.408;2022-10-31T01:18:27;25.83;;;16.90;;
14013;SDS011;49110;52.584;13.408;2022-10-31T01:19:27;25.00;;;17.30;;
14013;SDS011;49110;52.584;13.408;2022-10-31T01:20:28;24.10;;;16.60;;
14013;SDS011;49110;52.584;13.408;2022-10-31T01:21:29;23.50;;;16.57;;
14013;SDS011;49110;52.584;13.408;2022-10-31T01:22:29;23.97;;;16.47;;
14013;SDS011;49110;52.584;13.408;2022-10-31T01:23:30;23.83;;;16.43;;
14013;SDS011;49110;52.584;13.408;2022-10-31T01:24:32;24.83;;;16.17;;
14013;SDS011;49110;52.584;13.408;2022-10-31T01:25:32;23.70;;;16.13;;
14013;SDS011;49110;52.584;13.408;2022-10-31T01:26:33;27.00;;;16.30;;
14013;SDS011;49110;52.584;13.408;2022-10-31T01:27:33;23.93;;;15.60;;
14013;SDS011;49110;52.584;13.408;2022-10-31T01:28:38;27.90;;;16.57;;
14013;SDS011;49110;52.584;13.408;2022-10-31T01:29:43;19.80;;;15.53;;
14013;SDS011;49110;52.584;13.408;2022-10-31T01:30:43;26.37;;;15.93;;
14013;SDS011;49110;52.584;13.408;2022-10-31T01:31:43;22.00;;;15.90;;
14013;SDS011;49110;52.584;13.408;2022-10-31T01:32:44;26.53;;;16.47;;
14013;SDS011;49110;52.584;13.408;2022-10-31T01:33:44;25.47;;;16.53;;
14013;SDS011;49110;52.584;13.408;2022-10-31T01:34:45;27.83;;;16.90;;
14013;SDS011;49110;52.584;13.408;2022-10-31T01:35:45;22.97;;;15.53;;
14013;SDS011;49110;52.584;13.408;2022-10-31T01:36:46;25.30;;;16.07;;
14013;SDS011;49110;52.584;13.408;2022-10-31T01:37:50;26.27;;;16.93;;
14013;SDS011;49110;52.584;13.408;2022-10-31T01:38:52;23.90;;;17.50;;
14013;SDS011;49110;52.584;13.408;2022-10-31T01:39:53;23.77;;;17.03;;
14013;SDS011;49110;52.584;13.408;2022-10-31T01:40:54;24.23;;;17.70;;
14013;SDS011;49110;52.584;13.408;2022-10-31T01:41:54;23.30;;;17.17;;
14013;SDS011;49110;52.584;13.408;2022-10-31T01:42:55;33.57;;;17.87;;
14013;SDS011;49110;52.584;13.408;2022-10-31T01:43:59;27.40;;;17.00;;
14013;SDS011;49110;52.584;13.408;2022-10-31T01:45:02;26.00;;;18.40;;
14013;SDS011;49110;52.584;13.408;2022-10-31T01:46:03;27.70;;;17.90;;
14013;SDS011;49110;52.584;13.408;2022-10-31T01:47:05;26.20;;;18.17;;
14013;SDS011;49110;52.584;13.408;2022-10-31T01:48:15;24.60;;;17.30;;
14013;SDS011;49110;52.584;13.408;2022-10-31T01:49:20;25.83;;;17.83;;
14013;SDS011;49110;52.584;13.408;2022-10-31T01:50:28;22.90;;;17.93;;
14013;SDS011;49110;52.584;13.408;2022-10-31T01:51:35;29.40;;;19.53;;
14013;SDS011;49110;52.584;13.408;2022-10-31T01:52:40;27.00;;;17.00;;
14013;SDS011;49110;52.584;13.408;2022-10-31T01:53:46;25.73;;;17.13;;
14013;SDS011;49110;52.584;13.408;2022-10-31T01:54:48;24.23;;;18.33;;
14013;SDS011;49110;52.584;13.408;2022-10-31T01:55:56;24.30;;;17.40;;
14013;SDS011;49110;52.584;13.408;2022-10-31T01:56:56;24.27;;;17.53;;
14013;SDS011;49110;52.584;13.408;2022-10-31T01:58:04;23.60;;;17.00;;
14013;SDS011;49110;52.584;13.408;2022-10-31T01:59:11;27.93;;;17.07;;
14013;SDS011;49110;52.584;13.408;2022-10-31T02:00:14;23.90;;;16.80;;
14013;SDS011;49110;52.584;13.408;2022-10-31T02:01:16;21.70;;;15.80;;
14013;SDS011;49110;52.584;13.408;2022-10-31T02:02:17;25.70;;;16.80;;
14013;SDS011;49110;52.584;13.408;2022-10-31T02:03:18;23.67;;;16.17;;
14013;SDS011;49110;52.584;13.408;2022-10-31T02:04:22;23.43;;;16.87;;
14013;SDS011;49110;52.584;13.408;2022-10-31T02:05:25;29.30;;;17.30;;
14013;SDS011;49110;52.584;13.408;2022-10-31T02:06:33;23.90;;;16.33;;
14013;SDS011;49110;52.584;13.408;2022-10-31T02:08:18;23.17;;;16.20;;
14013;SDS011;49110;52.584;13.408;2022-10-31T02:09:05;27.83;;;17.00;;
14013;SDS011;49110;52.584;13.408;2022-10-31T02:10:06;24.23;;;15.80;;
14013;SDS011;49110;52.584;13.408;2022-10-31T02:11:07;25.67;;;17.13;;
14013;SDS011;49110;52.584;13.408;2022-10-31T02:12:09;23.10;;;16.43;;
14013;SDS011;49110;52.584;13.408;2022-10-31T02:13:10;28.03;;;16.33;;
14013;SDS011;49110;52.584;13.408;2022-10-31T02:14:12;23.17;;;17.30;;
14013;SDS011;49110;52.584;13.408;2022-10-31T02:15:13;25.20;;;16.40;;
14013;SDS011;49110;52.584;13.408;2022-10-31T02:16:13;23.27;;;15.13;;
14013;SDS011;49110;52.584;13.408;2022-10-31T02:17:14;21.77;;;15.93;;
14013;SDS011;49110;52.584;13.408;2022-10-31T02:18:15;22.33;;;14.87;;
14013;SDS011;49110;52.584;13.408;2022-10-31T02:19:18;20.27;;;15.17;;
14013;SDS011;49110;52.584;13.408;2022-10-31T02:22:01;21.53;;;15.30;;
14013;SDS011;49110;52.584;13.408;2022-10-31T02:27:58;21.93;;;15.70;;
14013;SDS011;49110;52.584;13.408;2022-10-31T02:29:28;18.93;;;14.60;;
14013;SDS011;49110;52.584;13.408;2022-10-31T02:30:57;20.80;;;15.60;;
14013;SDS011;49110;52.584;13.408;2022-10-31T02:32:27;26.27;;;16.13;;
14013;SDS011;49110;52.584;13.408;2022-10-31T02:33:56;23.97;;;16.93;;
14013;SDS011;49110;52.584;13.408;2022-10-31T02:35:12;23.37;;;16.40;;
14013;SDS011;49110;52.584;13.408;2022-10-31T02:37:57;23.03;;;17.17;;
14013;SDS011;49110;52.584;13.408;2022-10-31T02:39:18;25.70;;;16.60;;
14013;SDS011;49110;52.584;13.408;2022-10-31T02:40:33;22.70;;;15.30;;
14013;SDS011;49110;52.584;13.408;2022-10-31T02:41:46;22.77;;;16.73;;
14013;SDS011;49110;52.584;13.408;2022-10-31T02:44:39;26.90;;;15.50;;
14013;SDS011;49110;52.584;13.408;2022-10-31T02:45:48;20.20;;;15.70;;
14013;SDS011;49110;52.584;13.408;2022-10-31T02:47:08;24.17;;;15.27;;
14013;SDS011;49110;52.584;13.408;2022-10-31T02:48:35;22.43;;;14.70;;
14013;SDS011;49110;52.584;13.408;2022-10-31T02:49:38;22.17;;;15.10;;
14013;SDS011;49110;52.584;13.408;2022-10-31T02:50:57;24.87;;;14.30;;
14013;SDS011;49110;52.584;13.408;2022-10-31T02:52:00;19.67;;;14.50;;
14013;SDS011;49110;52.584;13.408;2022-10-31T02:53:00;26.20;;;14.50;;
14013;SDS011;49110;52.584;13.408;2022-10-31T02:54:01;19.60;;;14.73;;
14013;SDS011;49110;52.584;13.408;2022-10-31T02:55:09;20.60;;;14.17;;
14013;SDS011;49110;52.584;13.408;2022-10-31T02:56:29;21.40;;;15.13;;
14013;SDS011;49110;52.584;13.408;2022-10-31T02:57:31;22.50;;;14.90;;
14013;SDS011;49110;52.584;13.408;2022-10-31T02:58:36;20.23;;;14.70;;
14013;SDS011;49110;52.584;13.408;2022-10-31T02:59:42;18.33;;;13.87;;
14013;SDS011;49110;52.584;13.408;2022-10-31T03:00:55;21.23;;;14.83;;
14013;SDS011;49110;52.584;13.408;2022-10-31T03:02:15;17.63;;;14.30;;
14013;SDS011;49110;52.584;13.408;2022-10-31T03:06:54;21.13;;;14.00;;
14013;SDS011;49110;52.584;13.408;2022-10-31T03:08:13;19.10;;;13.60;;
14013;SDS011;49110;52.584;13.408;2022-10-31T03:09:46;23.33;;;15.27;;
14013;SDS011;49110;52.584;13.408;2022-10-31T03:11:00;19.93;;;14.50;;
14013;SDS011;49110;52.584;13.408;2022-10-31T03:13:06;23.30;;;14.17;;
14013;SDS011;49110;52.584;13.408;2022-10-31T03:14:12;21.33;;;14.87;;
14013;SDS011;49110;52.584;13.408;2022-10-31T03:15:29;19.77;;;14.40;;
14013;SDS011;49110;52.584;13.408;2022-10-31T03:16:36;19.17;;;13.53;;
14013;SDS011;49110;52.584;13.408;2022-10-31T03:18:00;19.40;;;14.13;;
14013;SDS011;49110;52.584;13.408;2022-10-31T03:19:23;22.60;;;13.47;;
14013;SDS011;49110;52.584;13.408;2022-10-31T03:20:31;22.27;;;14.20;;
14013;SDS011;49110;52.584;13.408;2022-10-31T03:21:44;22.60;;;14.53;;
14013;SDS011;49110;52.584;13.408;2022-10-31T03:22:49;22.70;;;13.57;;
14013;SDS011;49110;52.584;13.408;2022-10-31T03:23:50;22.23;;;13.97;;
14013;SDS011;49110;52.584;13.408;2022-10-31T03:24:52;19.77;;;13.70;;
14013;SDS011;49110;52.584;13.408;2022-10-31T03:25:54;17.90;;;12.87;;
14013;SDS011;49110;52.584;13.408;2022-10-31T03:26:55;23.10;;;14.30;;
14013;SDS011;49110;52.584;13.408;2022-10-31T03:27:57;21.23;;;13.67;;
14013;SDS011;49110;52.584;13.408;2022-10-31T03:29:03;21.43;;;13.90;;
14013;SDS011;49110;52.584;13.408;2022-10-31T03:30:08;17.33;;;13.20;;
14013;SDS011;49110;52.584;13.408;2022-10-31T03:31:09;19.30;;;13.20;;
14013;SDS011;49110;52.584;13.408;2022-10-31T03:32:18;23.20;;;13.80;;
14013;SDS011;49110;52.584;13.408;2022-10-31T03:33:24;18.80;;;12.67;;
14013;SDS011;49110;52.584;13.408;2022-10-31T03:34:28;14.57;;;12.50;;
14013;SDS011;49110;52.584;13.408;2022-10-31T03:35:30;20.33;;;13.33;;
14013;SDS011;49110;52.584;13.408;2022-10-31T03:36:33;20.30;;;12.83;;
14013;SDS011;49110;52.584;13.408;2022-10-31T03:37:36;21.30;;;13.43;;
14013;SDS011;49110;52.584;13.408;2022-10-31T03:38:38;21.53;;;12.93;;
14013;SDS011;49110;52.584;13.408;2022-10-31T03:39:42;20.80;;;12.93;;
14013;SDS011;49110;52.584;13.408;2022-10-31T03:40:45;21.27;;;12.70;;
14013;SDS011;49110;52.584;13.408;2022-10-31T03:41:49;18.50;;;12.37;;
14013;SDS011;49110;52.584;13.408;2022-10-31T03:42:56;18.83;;;13.27;;
14013;SDS011;49110;52.584;13.408;2022-10-31T03:44:01;18.13;;;12.90;;
14013;SDS011;49110;52.584;13.408;2022-10-31T03:45:08;17.33;;;12.47;;
14013;SDS011;49110;52.584;13.408;2022-10-31T03:46:17;19.97;;;12.20;;
14013;SDS011;49110;52.584;13.408;2022-10-31T03:47:18;20.00;;;11.20;;
14013;SDS011;49110;52.584;13.408;2022-10-31T03:48:18;17.30;;;10.87;;
14013;SDS011;49110;52.584;13.408;2022-10-31T03:49:20;14.17;;;10.40;;
14013;SDS011;49110;52.584;13.408;2022-10-31T03:50:22;17.67;;;11.20;;
14013;SDS011;49110;52.584;13.408;2022-10-31T03:51:26;16.33;;;11.13;;
14013;SDS011;49110;52.584;13.408;2022-10-31T03:52:38;14.80;;;10.07;;
14013;SDS011;49110;52.584;13.408;2022-10-31T03:53:50;16.17;;;10.47;;
14013;SDS011;49110;52.584;13.408;2022-10-31T03:54:59;14.80;;;10.73;;
14013;SDS011;49110;52.584;13.408;2022-10-31T03:56:21;16.97;;;10.27;;
14013;SDS011;49110;52.584;13.408;2022-10-31T03:58:59;12.80;;;9.97;;
14013;SDS011;49110;52.584;13.408;2022-10-31T04:00:05;17.30;;;10.50;;
14013;SDS011;49110;52.584;13.408;2022-10-31T04:01:08;15.87;;;10.07;;
14013;SDS011;49110;52.584;13.408;2022-10-31T04:02:13;14.03;;;10.47;;
14013;SDS011;49110;52.584;13.408;2022-10-31T04:03:17;13.77;;;9.63;;
14013;SDS011;49110;52.584;13.408;2022-10-31T04:04:22;14.73;;;9.57;;
14013;SDS011;49110;52.584;13.408;2022-10-31T04:05:23;13.63;;;8.90;;
14013;SDS011;49110;52.584;13.408;2022-10-31T04:06:24;13.30;;;9.67;;
14013;SDS011;49110;52.584;13.408;2022-10-31T04:07:27;15.87;;;10.03;;
14013;SDS011;49110;52.584;13.408;2022-10-31T04:08:32;17.17;;;9.30;;
14013;SDS011;49110;52.584;13.408;2022-10-31T04:09:38;14.93;;;9.40;;
14013;SDS011;49110;52.584;13.408;2022-10-31T04:10:43;13.77;;;9.30;;
14013;SDS011;49110;52.584;13.408;2022-10-31T04:11:48;18.23;;;10.17;;
14013;SDS011;49110;52.584;13.408;2022-10-31T04:12:56;15.47;;;9.63;;
14013;SDS011;49110;52.584;13.408;2022-10-31T04:14:00;14.73;;;8.87;;
14013;SDS011;49110;52.584;13.408;2022-10-31T04:15:03;20.07;;;10.07;;
14013;SDS011;49110;52.584;13.408;2022-10-31T04:16:06;12.57;;;8.90;;
14013;SDS011;49110;52.584;13.408;2022-10-31T04:17:09;17.83;;;9.67;;
14013;SDS011;49110;52.584;13.408;2022-10-31T04:18:13;14.17;;;9.53;;
14013;SDS011;49110;52.584;13.408;2022-10-31T04:19:13;17.47;;;9.47;;
14013;SDS011;49110;52.584;13.408;2022-10-31T04:20:17;19.60;;;9.17;;
14013;SDS011;49110;52.584;13.408;2022-10-31T04:21:18;15.07;;;9.40;;
14013;SDS011;49110;52.584;13.408;2022-10-31T04:22:18;13.83;;;7.93;;
14013;SDS011;49110;52.584;13.408;2022-10-31T04:23:20;13.97;;;8.90;;
14013;SDS011;49110;52.584;13.408;2022-10-31T04:24:24;14.53;;;9.20;;
14013;SDS011;49110;52.584;13.408;2022-10-31T04:25:24;13.53;;;9.00;;
14013;SDS011;49110;52.584;13.408;2022-10-31T04:26:25;15.73;;;9.23;;
14013;SDS011;49110;52.584;13.408;2022-10-31T04:27:26;11.70;;;8.97;;
14013;SDS011;49110;52.584;13.408;2022-10-31T04:28:26;18.43;;;9.67;;
14013;SDS011;49110;52.584;13.408;2022-10-31T04:29:27;11.53;;;8.47;;
14013;SDS011;49110;52.584;13.408;2022-10-31T04:30:28;14.30;;;9.27;;
14013;SDS011;49110;52.584;13.408;2022-10-31T04:31:28;12.17;;;8.30;;
14013;SDS011;49110;52.584;13.408;2022-10-31T04:32:29;11.70;;;8.93;;
14013;SDS011;49110;52.584;13.408;2022-10-31T04:33:29;14.63;;;8.73;;
14013;SDS011;49110;52.584;13.408;2022-10-31T04:34:30;18.03;;;9.60;;
14013;SDS011;49110;52.584;13.408;2022-10-31T04:35:30;13.80;;;9.33;;
14013;SDS011;49110;52.584;13.408;2022-10-31T04:36:31;13.87;;;8.43;;
14013;SDS011;49110;52.584;13.408;2022-10-31T04:37:31;10.57;;;8.57;;
14013;SDS011;49110;52.584;13.408;2022-10-31T04:38:31;12.70;;;8.97;;
14013;SDS011;49110;52.584;13.408;2022-10-31T04:39:32;11.40;;;8.90;;
14013;SDS011;49110;52.584;13.408;2022-10-31T04:40:33;12.23;;;9.20;;
14013;SDS011;49110;52.584;13.408;2022-10-31T04:41:33;15.40;;;9.33;;
14013;SDS011;49110;52.584;13.408;2022-10-31T04:42:34;12.13;;;9.00;;
14013;SDS011;49110;52.584;13.408;2022-10-31T04:43:34;12.20;;;8.80;;
14013;SDS011;49110;52.584;13.408;2022-10-31T04:44:35;14.97;;;8.80;;
14013;SDS011;49110;52.584;13.408;2022-10-31T04:45:36;12.37;;;8.90;;
14013;SDS011;49110;52.584;13.408;2022-10-31T04:46:37;12.87;;;9.30;;
14013;SDS011;49110;52.584;13.408;2022-10-31T04:47:37;12.40;;;9.67;;
14013;SDS011;49110;52.584;13.408;2022-10-31T04:48:38;14.83;;;9.83;;
14013;SDS011;49110;52.584;13.408;2022-10-31T04:49:38;11.03;;;8.90;;
14013;SDS011;49110;52.584;13.408;2022-10-31T04:50:39;15.10;;;9.43;;
14013;SDS011;49110;52.584;13.408;2022-10-31T04:51:39;11.90;;;8.20;;
14013;SDS011;49110;52.584;13.408;2022-10-31T04:52:42;15.83;;;9.47;;
14013;SDS011;49110;52.584;13.408;2022-10-31T04:53:44;11.13;;;8.70;;
14013;SDS011;49110;52.584;13.408;2022-10-31T04:54:45;12.83;;;8.83;;
14013;SDS011;49110;52.584;13.408;2022-10-31T04:55:45;14.50;;;8.80;;
14013;SDS011;49110;52.584;13.408;2022-10-31T04:56:46;12.90;;;9.10;;
14013;SDS011;49110;52.584;13.408;2022-10-31T04:57:47;14.77;;;8.67;;
14013;SDS011;49110;52.584;13.408;2022-10-31T04:58:49;11.67;;;8.57;;
14013;SDS011;49110;52.584;13.408;2022-10-31T04:59:49;14.17;;;8.63;;
14013;SDS011;49110;52.584;13.408;2022-10-31T05:00:53;13.10;;;9.10;;
14013;SDS011;49110;52.584;13.408;2022-10-31T05:01:54;16.47;;;9.33;;
14013;SDS011;49110;52.584;13.408;2022-10-31T05:02:55;13.93;;;8.93;;
14013;SDS011;49110;52.584;13.408;2022-10-31T05:03:57;11.73;;;8.23;;
14013;SDS011;49110;52.584;13.408;2022-10-31T05:04:57;12.87;;;8.27;;
14013;SDS011;49110;52.584;13.408;2022-10-31T05:05:58;13.50;;;8.33;;
14013;SDS011;49110;52.584;13.408;2022-10-31T05:06:58;14.93;;;8.17;;
14013;SDS011;49110;52.584;13.408;2022-10-31T05:07:58;12.77;;;8.53;;
14013;SDS011;49110;52.584;13.408;2022-10-31T05:08:59;12.70;;;8.27;;
14013;SDS011;49110;52.584;13.408;2022-10-31T05:10:00;11.67;;;8.60;;
14013;SDS011;49110;52.584;13.408;2022-10-31T05:11:01;12.43;;;8.23;;
14013;SDS011;49110;52.584;13.408;2022-10-31T05:12:02;14.40;;;8.30;;
14013;SDS011;49110;52.584;13.408;2022-10-31T05:13:03;14.20;;;8.33;;
14013;SDS011;49110;52.584;13.408;2022-10-31T05:14:04;12.97;;;8.57;;
14013;SDS011;49110;52.584;13.408;2022-10-31T05:15:05;14.33;;;8.30;;
14013;SDS011;49110;52.584;13.408;2022-10-31T05:16:06;12.83;;;8.40;;
14013;SDS011;49110;52.584;13.408;2022-10-31T05:17:09;13.57;;;8.80;;
14013;SDS011;49110;52.584;13.408;2022-10-31T05:18:12;10.87;;;8.10;;
14013;SDS011;49110;52.584;13.408;2022-10-31T05:19:12;11.63;;;8.07;;
14013;SDS011;49110;52.584;13.408;2022-10-31T05:20:13;12.20;;;8.00;;
14013;SDS011;49110;52.584;13.408;2022-10-31T05:21:15;11.77;;;8.90;;
14013;SDS011;49110;52.584;13.408;2022-10-31T05:22:15;12.10;;;8.70;;
14013;SDS011;49110;52.584;13.408;2022-10-31T05:23:16;11.33;;;8.20;;
14013;SDS011;49110;52.584;13.408;2022-10-31T05:24:16;10.77;;;8.70;;
14013;SDS011;49110;52.584;13.408;2022-10-31T05:25:17;13.40;;;7.97;;
14013;SDS011;49110;52.584;13.408;2022-10-31T05:26:19;11.57;;;8.50;;
14013;SDS011;49110;52.584;13.408;2022-10-31T05:27:19;15.40;;;8.43;;
14013;SDS011;49110;52.584;13.408;2022-10-31T05:28:20;16.93;;;8.87;;
14013;SDS011;49110;52.584;13.408;2022-10-31T05:29:21;12.43;;;8.40;;
14013;SDS011;49110;52.584;13.408;2022-10-31T05:30:23;10.00;;;8.50;;
14013;SDS011;49110;52.584;13.408;2022-10-31T05:31:25;12.00;;;8.57;;
14013;SDS011;49110;52.584;13.408;2022-10-31T05:32:25;13.50;;;8.57;;
14013;SDS011;49110;52.584;13.408;2022-10-31T05:33:26;12.60;;;7.87;;
14013;SDS011;49110;52.584;13.408;2022-10-31T05:34:26;16.70;;;8.83;;
14013;SDS011;49110;52.584;13.408;2022-10-31T05:35:30;14.10;;;8.97;;
14013;SDS011;49110;52.584;13.408;2022-10-31T05:36:32;12.53;;;9.03;;
14013;SDS011;49110;52.584;13.408;2022-10-31T05:37:32;12.60;;;8.47;;
14013;SDS011;49110;52.584;13.408;2022-10-31T05:38:33;16.67;;;8.70;;
14013;SDS011;49110;52.584;13.408;2022-10-31T05:39:33;14.87;;;9.30;;
14013;SDS011;49110;52.584;13.408;2022-10-31T05:40:34;12.33;;;8.03;;
14013;SDS011;49110;52.584;13.408;2022-10-31T05:41:34;13.37;;;8.70;;
14013;SDS011;49110;52.584;13.408;2022-10-31T05:42:35;11.17;;;8.30;;
14013;SDS011;49110;52.584;13.408;2022-10-31T05:43:35;13.93;;;9.10;;
14013;SDS011;49110;52.584;13.408;2022-10-31T05:44:36;15.40;;;9.27;;
14013;SDS011;49110;52.584;13.408;2022-10-31T05:45:37;16.20;;;8.97;;
14013;SDS011;49110;52.584;13.408;2022-10-31T05:46:37;11.83;;;8.37;;
14013;SDS011;49110;52.584;13.408;2022-10-31T05:47:38;12.57;;;8.53;;
14013;SDS011;49110;52.584;13.408;2022-10-31T05:48:39;12.23;;;7.80;;
14013;SDS011;49110;52.584;13.408;2022-10-31T05:49:39;12.03;;;8.70;;
14013;SDS011;49110;52.584;13.408;2022-10-31T05:50:40;15.50;;;10.00;;
14013;SDS011;49110;52.584;13.408;2022-10-31T05:51:40;14.83;;;8.67;;
14013;SDS011;49110;52.584;13.408;2022-10-31T05:52:41;13.10;;;8.13;;
14013;SDS011;49110;52.584;13.408;2022-10-31T05:53:41;14.93;;;8.37;;
14013;SDS011;49110;52.584;13.408;2022-10-31T05:54:42;15.87;;;8.70;;
14013;SDS011;49110;52.584;13.408;2022-10-31T05:55:42;15.57;;;8.77;;
14013;SDS011;49110;52.584;13.408;2022-10-31T05:56:43;16.30;;;8.30;;
14013;SDS011;49110;52.584;13.408;2022-10-31T05:57:44;12.13;;;8.87;;
14013;SDS011;49110;52.584;13.408;2022-10-31T05:58:44;14.00;;;9.07;;
14013;SDS011;49110;52.584;13.408;2022-10-31T05:59:44;11.17;;;9.27;;
14013;SDS011;49110;52.584;13.408;2022-10-31T06:00:45;11.33;;;7.93;;
14013;SDS011;49110;52.584;13.408;2022-10-31T06:01:45;12.63;;;8.60;;
14013;SDS011;49110;52.584;13.408;2022-10-31T06:02:46;12.57;;;8.23;;
14013;SDS011;49110;52.584;13.408;2022-10-31T06:03:46;17.27;;;9.20;;
14013;SDS011;49110;52.584;13.408;2022-10-31T06:04:47;11.73;;;8.43;;
14013;SDS011;49110;52.584;13.408;2022-10-31T06:05:47;17.10;;;8.73;;
14013;SDS011;49110;52.584;13.408;2022-10-31T06:06:48;11.60;;;8.23;;
14013;SDS011;49110;52.584;13.408;2022-10-31T06:07:48;13.03;;;9.10;;
14013;SDS011;49110;52.584;13.408;2022-10-31T06:08:49;12.27;;;8.47;;
14013;SDS011;49110;52.584;13.408;2022-10-31T06:09:49;14.97;;;9.13;;
14013;SDS011;49110;52.584;13.408;2022-10-31T06:10:50;14.83;;;9.53;;
14013;SDS011;49110;52.584;13.408;2022-10-31T06:11:50;13.27;;;8.67;;
14013;SDS011;49110;52.584;13.408;2022-10-31T06:12:51;12.67;;;8.27;;
14013;SDS011;49110;52.584;13.408;2022-10-31T06:13:51;12.17;;;8.53;;
14013;SDS011;49110;52.584;13.408;2022-10-31T06:14:52;13.13;;;8.83;;
14013;SDS011;49110;52.584;13.408;2022-10-31T06:15:52;14.17;;;8.40;;
14013;SDS011;49110;52.584;13.408;2022-10-31T06:16:53;9.90;;;7.87;;
14013;SDS011;49110;52.584;13.408;2022-10-31T06:18:04;11.37;;;7.60;;
14013;SDS011;49110;52.584;13.408;2022-10-31T06:19:05;10.97;;;7.67;;
14013;SDS011;49110;52.584;13.408;2022-10-31T06:20:06;14.13;;;8.27;;
14013;SDS011;49110;52.584;13.408;2022-10-31T06:21:07;15.37;;;9.57;;
14013;SDS011;49110;52.584;13.408;2022-10-31T06:22:08;10.97;;;8.73;;
14013;SDS011;49110;52.584;13.408;2022-10-31T06:23:08;14.83;;;8.87;;